createdAt,value
2023-05-06T00:02:17.467Z,2.58
2023-05-06T00:04:44.228Z,2.30
2023-05-06T00:07:11.627Z,2.80
2023-05-06T00:09:38.172Z,2.90
2023-05-06T00:12:05.513Z,2.67
2023-05-06T00:14:32.142Z,2.40
2023-05-06T00:16:58.813Z,2.17
2023-05-06T00:19:25.430Z,3.40
2023-05-06T00:21:52.061Z,2.50
2023-05-06T00:24:18.615Z,2.20
2023-05-06T00:26:45.606Z,3.15
2023-05-06T00:29:13.221Z,2.43
2023-05-06T00:31:41.042Z,2.50
2023-05-06T00:34:08.507Z,3.00
2023-05-06T00:36:36.412Z,2.25
2023-05-06T00:39:03.213Z,2.72
2023-05-06T00:41:33.759Z,2.50
2023-05-06T00:44:01.386Z,2.83
2023-05-06T00:46:28.027Z,3.10
2023-05-06T00:48:55.295Z,2.53
2023-05-06T00:51:22.427Z,2.80
2023-05-06T00:53:49.098Z,7.77
2023-05-06T00:56:19.977Z,2.55
2023-05-06T00:58:48.213Z,2.92
2023-05-06T01:01:15.074Z,2.58
2023-05-06T01:03:41.971Z,2.50
2023-05-06T01:06:33.246Z,5.23
2023-05-06T01:09:25.734Z,2.83
2023-05-06T01:12:12.180Z,4.22
2023-05-06T01:14:54.139Z,2.53
2023-05-06T01:17:26.488Z,2.30
2023-05-06T01:19:58.375Z,2.70
2023-05-06T01:22:27.041Z,2.63
2023-05-06T01:24:53.619Z,2.85
2023-05-06T01:27:21.740Z,3.45
2023-05-06T01:29:48.536Z,2.72
2023-05-06T01:32:29.874Z,2.27
2023-05-06T01:35:12.627Z,6.18
2023-05-06T01:37:47.196Z,2.53
2023-05-06T01:40:17.667Z,3.72
2023-05-06T01:42:48.659Z,2.70
2023-05-06T01:45:17.066Z,2.83
2023-05-06T01:47:45.929Z,3.45
2023-05-06T01:50:13.294Z,3.65
2023-05-06T01:52:40.001Z,2.75
2023-05-06T01:55:07.481Z,2.70
2023-05-06T01:57:34.386Z,3.07
2023-05-06T02:00:01.140Z,2.58
2023-05-06T02:02:27.862Z,2.85
2023-05-06T02:04:54.554Z,2.65
2023-05-06T02:07:21.254Z,2.50
2023-05-06T02:09:47.893Z,3.03
2023-05-06T02:12:14.627Z,3.53
2023-05-06T02:14:41.352Z,3.28
2023-05-06T02:17:08.011Z,3.17
2023-05-06T02:19:34.835Z,3.72
2023-05-06T02:22:01.484Z,3.70
2023-05-06T02:24:29.220Z,2.92
2023-05-06T02:26:56.787Z,3.08
2023-05-06T02:29:23.443Z,3.17
2023-05-06T02:31:50.200Z,2.88
2023-05-06T02:34:17.345Z,2.83
2023-05-06T02:36:43.951Z,5.43
2023-05-06T02:39:10.494Z,2.72
2023-05-06T02:41:37.118Z,3.20
2023-05-06T02:44:03.932Z,3.38
2023-05-06T02:46:31.020Z,2.57
2023-05-06T02:48:57.724Z,3.08
2023-05-06T02:51:24.315Z,3.05
2023-05-06T02:53:50.925Z,2.85
2023-05-06T02:56:17.478Z,3.45
2023-05-06T02:58:44.108Z,2.97
2023-05-06T03:01:10.940Z,3.40
2023-05-06T03:03:37.586Z,3.15
2023-05-06T03:06:04.415Z,2.90
2023-05-06T03:08:31.086Z,3.95
2023-05-06T03:10:58.461Z,3.00
2023-05-06T03:13:25.022Z,3.28
2023-05-06T03:15:54.957Z,3.75
2023-05-06T03:18:22.301Z,3.55
2023-05-06T03:20:49.739Z,3.20
2023-05-06T03:23:17.093Z,4.00
2023-05-06T03:25:44.311Z,4.15
2023-05-06T03:28:11.752Z,3.95
2023-05-06T03:30:39.856Z,3.20
2023-05-06T03:33:07.841Z,4.82
2023-05-06T03:35:34.758Z,4.70
2023-05-06T03:38:02.122Z,5.55
2023-05-06T03:40:37.101Z,3.65
2023-05-06T03:43:04.176Z,4.40
2023-05-06T03:45:30.861Z,4.10
2023-05-06T03:48:00.480Z,4.33
2023-05-06T03:50:28.622Z,4.68
2023-05-06T03:52:55.293Z,5.38
2023-05-06T03:55:24.474Z,4.30
2023-05-06T03:57:51.352Z,4.07
2023-05-06T04:00:19.184Z,5.40
2023-05-06T04:02:50.650Z,4.45
2023-05-06T04:05:23.323Z,6.15
2023-05-06T04:07:50.004Z,4.53
2023-05-06T04:10:16.751Z,7.20
2023-05-06T04:12:47.504Z,4.17
2023-05-06T04:15:18.748Z,4.60
2023-05-06T04:17:45.385Z,4.78
2023-05-06T04:20:12.403Z,3.92
2023-05-06T04:22:39.811Z,5.95
2023-05-06T04:25:07.500Z,6.40
2023-05-06T04:27:36.584Z,5.53
2023-05-06T04:30:06.268Z,5.50
2023-05-06T04:32:34.092Z,3.60
2023-05-06T04:35:02.894Z,4.72
2023-05-06T04:37:30.822Z,3.87
2023-05-06T04:40:23.619Z,4.13
2023-05-06T04:42:52.322Z,5.82
2023-05-06T04:45:25.223Z,4.15
2023-05-06T04:47:53.174Z,4.43
2023-05-06T04:50:20.012Z,5.13
2023-05-06T04:52:46.900Z,4.60
2023-05-06T04:55:15.230Z,4.85
2023-05-06T04:57:47.234Z,4.38
2023-05-06T05:00:14.597Z,3.65
2023-05-06T05:02:41.269Z,3.83
2023-05-06T05:05:08.562Z,3.92
2023-05-06T05:07:36.109Z,3.85
2023-05-06T05:10:03.145Z,4.88
2023-05-06T05:12:31.461Z,3.40
2023-05-06T05:14:58.762Z,4.40
2023-05-06T05:17:25.508Z,3.70
2023-05-06T05:19:52.904Z,4.43
2023-05-06T05:22:20.419Z,5.00
2023-05-06T05:24:47.158Z,3.35
2023-05-06T05:27:13.789Z,4.13
2023-05-06T05:29:40.794Z,3.67
2023-05-06T05:32:08.809Z,3.38
2023-05-06T05:34:36.187Z,4.22
2023-05-06T05:37:02.934Z,5.88
2023-05-06T05:39:30.631Z,3.60
2023-05-06T05:41:57.991Z,4.10
2023-05-06T05:44:25.439Z,5.47
2023-05-06T05:46:52.462Z,3.53
2023-05-06T05:49:20.281Z,4.30
2023-05-06T05:51:49.130Z,3.53
2023-05-06T05:54:17.820Z,3.78
2023-05-06T05:56:45.673Z,4.90
2023-05-06T05:59:12.486Z,5.82
2023-05-06T06:01:39.316Z,4.65
2023-05-06T06:04:08.072Z,5.00
2023-05-06T06:06:35.763Z,3.78
2023-05-06T06:09:02.538Z,3.30
2023-05-06T06:11:30.125Z,3.00
2023-05-06T06:13:57.345Z,3.88
2023-05-06T06:16:24.347Z,4.47
2023-05-06T06:18:51.006Z,4.45
2023-05-06T06:21:18.146Z,4.28
2023-05-06T06:23:45.469Z,4.43
2023-05-06T06:26:12.478Z,3.95
2023-05-06T06:28:39.696Z,3.77
2023-05-06T06:31:06.295Z,4.10
2023-05-06T06:33:32.925Z,4.28
2023-05-06T06:35:59.623Z,4.72
2023-05-06T06:38:26.156Z,5.10
2023-05-06T06:40:52.747Z,4.60
2023-05-06T06:43:23.766Z,4.68
2023-05-06T06:45:59.972Z,4.95
2023-05-06T06:48:26.673Z,4.13
2023-05-06T06:50:53.254Z,5.63
2023-05-06T06:53:20.164Z,5.73
2023-05-06T06:55:46.816Z,7.53
2023-05-06T06:58:13.494Z,5.03
2023-05-06T07:00:40.413Z,5.50
2023-05-06T07:03:07.129Z,6.30
2023-05-06T07:05:33.837Z,5.80
2023-05-06T07:08:00.446Z,5.82
2023-05-06T07:10:27.137Z,5.82
2023-05-06T07:12:54.179Z,5.38
2023-05-06T07:15:21.032Z,4.28
2023-05-06T07:17:47.730Z,4.10
2023-05-06T07:20:14.349Z,4.68
2023-05-06T07:22:41.239Z,5.00
2023-05-06T07:25:08.733Z,4.50
2023-05-06T07:27:35.480Z,4.43
2023-05-06T07:30:02.310Z,4.93
2023-05-06T07:32:29.271Z,4.65
2023-05-06T07:34:55.884Z,5.53
2023-05-06T07:37:22.468Z,4.43
2023-05-06T07:39:49.027Z,5.53
2023-05-06T07:42:15.664Z,5.17
2023-05-06T07:44:42.240Z,4.72
2023-05-06T07:47:09.060Z,5.25
2023-05-06T07:49:35.771Z,4.50
2023-05-06T07:52:03.514Z,7.43
2023-05-06T07:54:31.736Z,7.07
2023-05-06T07:56:58.547Z,5.57
2023-05-06T07:59:25.314Z,6.45
2023-05-06T08:01:52.173Z,7.13
2023-05-06T08:04:18.922Z,5.43
2023-05-06T08:06:45.535Z,5.47
2023-05-06T08:09:17.030Z,6.95
2023-05-06T08:11:50.079Z,5.72
2023-05-06T08:14:16.807Z,7.60
2023-05-06T08:16:43.543Z,8.35
2023-05-06T08:19:10.430Z,7.67
2023-05-06T08:21:37.313Z,5.38
2023-05-06T08:24:04.167Z,7.00
2023-05-06T08:26:30.738Z,5.15
2023-05-06T08:28:58.781Z,7.60
2023-05-06T08:31:25.549Z,5.03
2023-05-06T08:33:54.407Z,5.45
2023-05-06T08:36:22.140Z,5.32
2023-05-06T08:38:50.772Z,4.75
2023-05-06T08:41:21.234Z,5.05
2023-05-06T08:43:50.276Z,6.23
2023-05-06T08:46:17.948Z,9.40
2023-05-06T08:48:45.428Z,4.68
2023-05-06T08:51:15.315Z,5.00
2023-05-06T08:53:48.518Z,5.47
2023-05-06T08:56:16.554Z,6.20
2023-05-06T08:58:46.228Z,5.32
2023-05-06T09:01:15.494Z,4.75
2023-05-06T09:03:42.262Z,4.00
2023-05-06T09:06:08.923Z,5.57
2023-05-06T09:08:36.224Z,5.47
2023-05-06T09:11:02.895Z,6.10
2023-05-06T09:13:30.196Z,4.60
2023-05-06T09:15:56.818Z,4.55
2023-05-06T09:18:23.674Z,5.20
2023-05-06T09:20:50.432Z,6.97
2023-05-06T09:23:18.673Z,6.95
2023-05-06T09:25:46.848Z,4.97
2023-05-06T09:28:14.344Z,6.15
2023-05-06T09:30:42.593Z,4.05
2023-05-06T09:33:09.794Z,4.23
2023-05-06T09:35:43.716Z,5.05
2023-05-06T09:38:10.974Z,4.90
2023-05-06T09:40:38.923Z,4.43
2023-05-06T09:43:05.910Z,5.57
2023-05-06T09:45:33.301Z,3.90
2023-05-06T09:48:00.928Z,4.03
2023-05-06T09:50:28.530Z,3.90
2023-05-06T09:52:56.236Z,5.43
2023-05-06T09:55:23.660Z,3.80
2023-05-06T09:57:50.357Z,4.97
2023-05-06T10:00:17.522Z,7.22
2023-05-06T10:02:45.823Z,5.95
2023-05-06T10:05:13.653Z,4.00
2023-05-06T10:07:44.084Z,4.47
2023-05-06T10:10:14.324Z,5.67
2023-05-06T10:12:41.945Z,4.25
2023-05-06T10:15:09.475Z,5.20
2023-05-06T10:17:39.900Z,7.13
2023-05-06T10:20:09.561Z,6.10
2023-05-06T10:22:56.521Z,5.30
2023-05-06T10:25:29.081Z,4.97
2023-05-06T10:27:55.715Z,4.88
2023-05-06T10:30:23.265Z,5.30
2023-05-06T10:32:52.097Z,5.85
2023-05-06T10:35:44.249Z,4.10
2023-05-06T10:38:26.012Z,4.53
2023-05-06T10:40:53.028Z,4.78
2023-05-06T10:43:23.360Z,4.85
2023-05-06T10:46:01.811Z,7.28
2023-05-06T10:48:29.965Z,4.53
2023-05-06T10:51:25.249Z,5.15
2023-05-06T10:54:02.801Z,5.20
2023-05-06T10:56:32.152Z,4.60
2023-05-06T10:59:10.115Z,4.00
2023-05-06T11:01:41.589Z,3.60
2023-05-06T11:04:09.805Z,5.43
2023-05-06T11:06:46.269Z,4.00
2023-05-06T11:09:22.659Z,4.88
2023-05-06T11:11:51.105Z,6.03
2023-05-06T11:14:28.120Z,3.73
2023-05-06T11:16:57.327Z,5.45
2023-05-06T11:19:29.091Z,6.00
2023-05-06T11:21:58.257Z,4.55
2023-05-06T11:24:28.746Z,3.78
2023-05-06T11:26:59.975Z,4.20
2023-05-06T11:29:27.740Z,4.28
2023-05-06T11:31:54.488Z,5.95
2023-05-06T11:34:28.615Z,5.45
2023-05-06T11:37:02.103Z,6.07
2023-05-06T11:39:30.930Z,4.07
2023-05-06T11:41:59.758Z,5.53
2023-05-06T11:44:28.338Z,4.40
2023-05-06T11:47:04.422Z,4.75
2023-05-06T11:49:39.995Z,5.07
2023-05-06T11:52:08.403Z,4.93
2023-05-06T11:54:36.287Z,4.53
2023-05-06T11:57:03.615Z,6.57
2023-05-06T11:59:32.413Z,7.50
2023-05-06T12:02:04.538Z,4.90
2023-05-06T12:04:45.709Z,3.47
2023-05-06T12:07:16.306Z,4.30
2023-05-06T12:09:48.460Z,4.47
2023-05-06T12:12:22.268Z,4.20
2023-05-06T12:14:52.282Z,4.32
2023-05-06T12:17:21.206Z,4.90
2023-05-06T12:19:47.875Z,4.20
2023-05-06T12:22:18.133Z,5.10
2023-05-06T12:24:46.077Z,5.68
2023-05-06T12:27:12.977Z,8.48
2023-05-06T12:29:59.928Z,6.20
2023-05-06T12:32:30.943Z,6.45
2023-05-06T12:34:59.410Z,6.70
2023-05-06T12:37:29.822Z,5.65
2023-05-06T12:39:59.213Z,4.60
2023-05-06T12:42:26.590Z,5.27
2023-05-06T12:44:53.249Z,6.40
2023-05-06T12:47:26.127Z,4.28
2023-05-06T12:50:01.021Z,3.53
2023-05-06T12:52:29.997Z,3.25
2023-05-06T12:54:57.475Z,3.63
2023-05-06T12:57:24.127Z,3.45
2023-05-06T12:59:50.772Z,3.78
2023-05-06T13:02:17.668Z,3.47
2023-05-06T13:04:46.638Z,3.83
2023-05-06T13:07:13.308Z,3.27
2023-05-06T13:09:39.915Z,3.25
2023-05-06T13:12:07.188Z,3.80
2023-05-06T13:14:33.789Z,3.63
2023-05-06T13:17:01.146Z,3.97
2023-05-06T13:19:32.722Z,5.20
2023-05-06T13:22:00.504Z,4.78
2023-05-06T13:24:27.533Z,4.45
2023-05-06T13:26:54.424Z,7.57
2023-05-06T13:29:20.982Z,5.57
2023-05-06T13:31:47.692Z,4.40
2023-05-06T13:34:14.252Z,4.32
2023-05-06T13:36:42.319Z,6.10
2023-05-06T13:39:08.854Z,3.85
2023-05-06T13:41:35.595Z,4.47
2023-05-06T13:44:03.581Z,5.30
2023-05-06T13:46:32.182Z,6.95
2023-05-06T13:48:58.838Z,5.18
2023-05-06T13:51:29.869Z,5.72
2023-05-06T13:53:56.500Z,5.38
2023-05-06T13:56:23.104Z,6.07
2023-05-06T13:58:49.829Z,5.78
2023-05-06T14:01:16.590Z,8.07
2023-05-06T14:03:43.222Z,5.20
2023-05-06T14:06:09.871Z,5.85
2023-05-06T14:08:36.513Z,6.60
2023-05-06T14:11:03.218Z,5.72
2023-05-06T14:13:32.556Z,5.68
2023-05-06T14:15:59.950Z,5.25
2023-05-06T14:18:27.514Z,6.90
2023-05-06T14:20:54.641Z,5.13
2023-05-06T14:23:21.333Z,5.78
2023-05-06T14:25:48.704Z,5.20
2023-05-06T14:28:15.729Z,4.68
2023-05-06T14:30:43.051Z,6.78
2023-05-06T14:33:10.351Z,6.33
2023-05-06T14:35:42.418Z,5.97
2023-05-06T14:38:10.679Z,6.18
2023-05-06T14:40:38.752Z,5.95
2023-05-06T14:43:06.865Z,5.50
2023-05-06T14:45:33.545Z,5.47
2023-05-06T14:48:00.401Z,6.47
2023-05-06T14:50:27.153Z,5.25
2023-05-06T14:52:53.864Z,6.30
2023-05-06T14:55:21.538Z,5.57
2023-05-06T14:57:48.732Z,5.77
2023-05-06T15:00:16.748Z,4.80
2023-05-06T15:02:43.456Z,6.72
2023-05-06T15:05:10.726Z,6.18
2023-05-06T15:07:37.823Z,5.85
2023-05-06T15:10:04.747Z,5.93
2023-05-06T15:12:31.405Z,5.93
2023-05-06T15:14:58.097Z,6.20
2023-05-06T15:17:24.925Z,4.78
2023-05-06T15:19:51.675Z,4.38
2023-05-06T15:22:18.361Z,4.80
2023-05-06T15:24:45.359Z,5.28
2023-05-06T15:27:11.941Z,4.95
2023-05-06T15:29:39.622Z,5.90
2023-05-06T15:32:06.429Z,5.28
2023-05-06T15:34:33.136Z,6.03
2023-05-06T15:37:01.828Z,6.85
2023-05-06T15:39:28.530Z,4.50
2023-05-06T15:41:55.444Z,6.07
2023-05-06T15:44:22.008Z,6.50
2023-05-06T15:46:49.664Z,5.20
2023-05-06T15:51:46.032Z,5.30
2023-05-06T15:54:13.124Z,5.13
2023-05-06T15:56:41.594Z,5.07
2023-05-06T15:59:08.610Z,5.20
2023-05-06T16:01:53.778Z,3.65
2023-05-06T16:04:22.553Z,5.30
2023-05-06T16:06:49.543Z,3.50
2023-05-06T16:09:16.123Z,5.50
2023-05-06T16:11:42.760Z,5.97
2023-05-06T16:14:12.827Z,4.32
2023-05-06T16:16:39.469Z,4.45
2023-05-06T16:19:06.697Z,3.70
2023-05-06T16:21:33.371Z,5.30
2023-05-06T16:24:01.168Z,4.83
2023-05-06T16:26:27.834Z,5.63
2023-05-06T16:28:54.723Z,4.25
2023-05-06T16:31:21.401Z,4.45
2023-05-06T16:33:48.041Z,6.00
2023-05-06T16:36:14.834Z,4.90
2023-05-06T16:38:41.358Z,4.72
2023-05-06T16:41:08.037Z,3.75
2023-05-06T16:43:34.767Z,4.57
2023-05-06T16:46:01.512Z,3.40
2023-05-06T16:48:28.710Z,4.23
2023-05-06T16:50:55.404Z,3.67
2023-05-06T16:53:22.052Z,4.13
2023-05-06T16:55:49.125Z,6.72
2023-05-06T16:58:16.473Z,6.20
2023-05-06T17:00:43.473Z,4.27
2023-05-06T17:03:10.353Z,5.90
2023-05-06T17:05:37.272Z,4.40
2023-05-06T17:08:03.989Z,3.47
2023-05-06T17:10:30.652Z,4.35
2023-05-06T17:12:58.149Z,5.00
2023-05-06T17:15:25.677Z,5.70
2023-05-06T17:17:52.839Z,4.18
2023-05-06T17:20:20.062Z,3.70
2023-05-06T17:22:47.011Z,4.50
2023-05-06T17:25:13.860Z,4.67
2023-05-06T17:27:40.744Z,5.53
2023-05-06T17:30:09.836Z,4.38
2023-05-06T17:32:36.685Z,5.40
2023-05-06T17:35:03.709Z,4.40
2023-05-06T17:37:31.253Z,5.43
2023-05-06T17:39:57.933Z,5.13
2023-05-06T17:42:24.739Z,5.47
2023-05-06T17:44:51.405Z,3.80
2023-05-06T17:47:20.791Z,4.20
2023-05-06T17:49:47.466Z,5.03
2023-05-06T17:52:14.031Z,4.80
2023-05-06T17:54:40.659Z,5.55
2023-05-06T17:57:07.234Z,4.32
2023-05-06T17:59:33.918Z,4.63
2023-05-06T18:02:00.796Z,3.80
2023-05-06T18:04:27.447Z,4.95
2023-05-06T18:06:54.093Z,6.35
2023-05-06T18:09:20.838Z,4.93
2023-05-06T18:11:47.552Z,4.93
2023-05-06T18:14:14.763Z,8.37
2023-05-06T18:16:41.916Z,5.35
2023-05-06T18:19:08.795Z,4.90
2023-05-06T18:21:35.967Z,5.15
2023-05-06T18:24:15.424Z,5.00
2023-05-06T18:26:44.581Z,6.17
2023-05-06T18:29:12.478Z,5.35
2023-05-06T18:31:39.447Z,5.38
2023-05-06T18:34:06.163Z,7.00
2023-05-06T18:36:34.839Z,5.65
2023-05-06T18:39:01.901Z,5.17
2023-05-06T18:41:28.535Z,6.07
2023-05-06T18:43:55.148Z,5.57
2023-05-06T18:46:21.913Z,5.00
2023-05-06T18:48:48.620Z,8.90
2023-05-06T18:51:17.197Z,5.73
2023-05-06T18:53:44.960Z,5.45
2023-05-06T18:56:13.978Z,5.45
2023-05-06T18:58:40.911Z,5.18
2023-05-06T19:01:08.908Z,5.95
2023-05-06T19:03:37.103Z,4.90
2023-05-06T19:06:07.573Z,4.50
2023-05-06T19:08:34.230Z,4.88
2023-05-06T19:11:01.839Z,4.22
2023-05-06T19:13:28.725Z,3.92
2023-05-06T19:15:56.991Z,4.03
2023-05-06T19:18:23.681Z,5.20
2023-05-06T19:20:52.818Z,5.47
2023-05-06T19:23:20.139Z,5.07
2023-05-06T19:25:46.781Z,4.30
2023-05-06T19:28:13.485Z,4.10
2023-05-06T19:30:40.105Z,4.70
2023-05-06T19:33:06.841Z,4.88
2023-05-06T19:35:33.583Z,4.28
2023-05-06T19:38:00.311Z,5.22
2023-05-06T19:40:26.900Z,4.50
2023-05-06T19:42:53.796Z,6.22
2023-05-06T19:45:20.554Z,12.30
2023-05-06T19:47:47.301Z,13.35
2023-05-06T19:50:13.936Z,12.43
2023-05-06T19:52:40.633Z,8.90
2023-05-06T19:55:07.539Z,5.82
2023-05-06T19:57:34.117Z,3.20
2023-05-06T20:00:05.204Z,4.55
2023-05-06T20:02:32.898Z,4.40
2023-05-06T20:05:00.579Z,4.50
2023-05-06T20:07:27.742Z,3.70
2023-05-06T20:09:55.962Z,3.83
2023-05-06T20:12:23.623Z,6.43
2023-05-06T20:14:50.388Z,5.15
2023-05-06T20:17:17.043Z,4.07
2023-05-06T20:19:45.028Z,4.50
2023-05-06T20:22:11.809Z,4.72
2023-05-06T20:24:40.749Z,4.35
2023-05-06T20:27:07.640Z,4.50
2023-05-06T20:29:34.246Z,4.50
2023-05-06T20:32:01.336Z,6.45
2023-05-06T20:34:27.924Z,4.20
2023-05-06T20:36:55.273Z,3.97
2023-05-06T20:39:22.158Z,5.72
2023-05-06T20:41:48.782Z,3.87
2023-05-06T20:44:15.526Z,4.55
2023-05-06T20:46:42.258Z,4.13
2023-05-06T20:49:08.882Z,4.50
2023-05-06T20:51:35.560Z,4.25
2023-05-06T20:54:02.207Z,6.07
2023-05-06T20:56:28.927Z,5.68
2023-05-06T20:58:55.954Z,4.95
2023-05-06T21:01:23.839Z,4.03
2023-05-06T21:03:50.711Z,3.58
2023-05-06T21:06:18.787Z,4.90
2023-05-06T21:08:46.484Z,4.03
2023-05-06T21:11:13.376Z,4.32
2023-05-06T21:13:40.670Z,4.30
2023-05-06T21:16:07.586Z,6.93
2023-05-06T21:18:34.635Z,4.30
2023-05-06T21:21:01.351Z,4.30
2023-05-06T21:23:28.001Z,7.15
2023-05-06T21:25:54.706Z,3.60
2023-05-06T21:28:21.395Z,3.47
2023-05-06T21:30:48.027Z,6.27
2023-05-06T21:33:14.729Z,7.97
2023-05-06T21:35:41.319Z,6.18
2023-05-06T21:38:07.869Z,8.90
2023-05-06T21:40:34.514Z,5.95
2023-05-06T21:43:02.689Z,8.70
2023-05-06T21:45:29.298Z,5.10
2023-05-06T21:47:55.980Z,5.15
2023-05-06T21:50:22.723Z,5.70
2023-05-06T21:52:49.349Z,4.75
2023-05-06T21:55:16.017Z,5.40
2023-05-06T21:57:44.434Z,5.15
2023-05-06T22:00:12.097Z,6.13
2023-05-06T22:02:40.014Z,9.75
2023-05-06T22:05:07.971Z,8.23
2023-05-06T22:07:35.665Z,8.47
2023-05-06T22:10:02.537Z,7.93
2023-05-06T22:12:29.274Z,9.05
2023-05-06T22:14:55.912Z,8.77
2023-05-06T22:17:22.590Z,9.43
2023-05-06T22:19:49.308Z,8.43
2023-05-06T22:22:16.476Z,8.40
2023-05-06T22:24:43.123Z,7.85
2023-05-06T22:27:09.732Z,8.05
2023-05-06T22:29:36.471Z,7.22
2023-05-06T22:32:03.339Z,7.17
2023-05-06T22:34:30.144Z,8.15
2023-05-06T22:36:58.344Z,6.63
2023-05-06T22:39:27.219Z,5.35
2023-05-06T22:41:53.847Z,4.75
2023-05-06T22:44:21.061Z,5.30
2023-05-06T22:46:47.706Z,6.10
2023-05-06T22:49:15.923Z,5.57
2023-05-06T22:51:42.743Z,3.90
2023-05-06T22:54:09.449Z,4.35
2023-05-06T22:56:36.108Z,4.63
2023-05-06T22:59:03.104Z,4.47
2023-05-06T23:01:32.095Z,5.32
2023-05-06T23:03:59.659Z,4.35
2023-05-06T23:06:30.782Z,4.43
2023-05-06T23:08:57.558Z,5.60
2023-05-06T23:11:24.463Z,7.45
2023-05-06T23:13:50.958Z,4.82
2023-05-06T23:16:17.738Z,4.80
2023-05-06T23:18:45.714Z,5.47
2023-05-06T23:21:12.589Z,4.53
2023-05-06T23:23:39.289Z,5.75
2023-05-06T23:26:06.076Z,4.63
2023-05-06T23:28:32.758Z,4.88
2023-05-06T23:30:59.402Z,4.90
2023-05-06T23:33:26.067Z,3.90
2023-05-06T23:35:52.929Z,5.35
2023-05-06T23:38:19.528Z,4.65
2023-05-06T23:40:46.167Z,4.57
2023-05-06T23:43:12.810Z,4.45
2023-05-06T23:45:39.457Z,6.97
2023-05-06T23:48:06.285Z,4.00
2023-05-06T23:50:32.968Z,4.40
2023-05-06T23:52:59.706Z,4.03
2023-05-06T23:55:26.528Z,5.22
2023-05-06T23:57:53.245Z,5.17
